Flight Track Log - Related Links

Times and Time Zones

All times are in EDT time to prevent confusion due to time zone crossing. See the UAL3746 flight status page for this flight to view local times or setup timezone preferences in your user account.

Time Position Orientation Groundspeed Altitude Reporting Facility
EDT Latitude Longitude Course Direction KTS MPH feet Rate Location/Type
Mon 04:22:12 PM 42.0167 -87.8333 86° East 168 193 3,400  Level Chicago TRACON
Mon 04:23:06 PM 42.0333 -87.7667 71° East 212 244 4,700 1,846 Climbing Chicago TRACON
Mon 04:23:56 PM 42.0419 -87.7000 80° East 235 270 6,600 2,357 Climbing Chicago Center
Mon 04:24:00 PM 42.1902 -87.2796 66° East  Level FlightAware Approximate
Mon 04:24:58 PM 42.0708 -87.6117 66° East 259 298 9,100  Level Chicago Center
Mon 04:25:00 PM 42.2436 -87.1192 66° East  Level FlightAware Approximate
Mon 04:26:00 PM 42.2691 -86.9500 86° East  Level FlightAware Approximate
Mon 04:26:00 PM 42.1047 -87.5231 63° Northeast 266 306 11,700  Level Chicago Center
Mon 04:27:00 PM 42.2766 -86.7930 86° East  Level FlightAware Approximate
Mon 04:27:02 PM 42.1397 -87.4308 63° Northeast 277 319 13,700  Level Chicago Center
Mon 04:28:04 PM 42.1867 -87.3056 63° Northeast 317 365 15,300 1,597 Climbing Chicago Center
Mon 04:29:06 PM 42.2297 -87.1919 63° Northeast 339 390 17,000 1,548 Climbing Chicago Center
Mon 04:30:08 PM 42.2722 -87.0742 64° Northeast 350 403 18,500 1,500 Climbing Chicago Center
Mon 04:31:10 PM 42.2842 -86.9394 83° East 370 426 20,100 1,452 Climbing Chicago Center
Mon 04:32:12 PM 42.2900 -86.7994 87° East 372 428 21,500 1,403 Climbing Chicago Center
Mon 04:33:14 PM 42.2942 -86.6558 88° East 383 441 23,000 1,392 Climbing Chicago Center
Mon 04:34:17 PM 42.3014 -86.4836 87° East 401 461 24,400 1,200 Climbing Chicago Center
Mon 04:35:19 PM 42.3069 -86.3322 87° East 405 466 25,500 1,016 Climbing Chicago Center
Mon 04:36:21 PM 42.3117 -86.1772 88° East 414 476 26,500 919 Climbing Chicago Center
Mon 04:37:23 PM 42.3144 -86.0181 89° East 425 489 27,400 1,065 Climbing Chicago Center
Mon 04:38:25 PM 42.3108 -85.8236 91° East 434 499 28,700 1,113 Climbing Chicago Center
Mon 04:39:27 PM 42.3094 -85.6592 91° East 439 505 29,700 823 Climbing Chicago Center
Mon 04:40:29 PM 42.3067 -85.4953 91° East 441 507 30,400 677 Climbing Chicago Center
Mon 04:41:31 PM 42.3042 -85.3281 91° East 446 513 31,100 677 Climbing Chicago Center
Mon 04:42:33 PM 42.3017 -85.1611 91° East 447 514 31,800 774 Climbing Chicago Center
Mon 04:43:35 PM 42.2975 -84.9583 92° East 450 518 32,700 774 Climbing Chicago Center
Mon 04:44:37 PM 42.2942 -84.7897 91° East 452 520 33,400 677 Climbing Chicago Center
Mon 04:45:39 PM 42.2900 -84.6186 92° East 456 525 34,100 672 Climbing Chicago Center
Mon 04:46:42 PM 42.2961 -84.4489 87° East 453 521 34,800 432 Climbing Chicago Center
Mon 04:47:44 PM 42.3119 -84.2761 83° East 464 534 35,000 113 Climbing Chicago Center
Mon 04:48:28 PM 42.3225 -84.1164 85° East 461 531 35,000  Level Cleveland Center
Mon 04:49:28 PM 42.3364 -83.9344 84° East 475 547 35,000  Level Cleveland Center
Mon 04:50:28 PM 42.3542 -83.7469 83° East 485 558 35,000  Level Cleveland Center
Mon 04:51:28 PM 42.3675 -83.5622 84° East 495 570 35,000  Level Cleveland Center
Mon 04:52:28 PM 42.3847 -83.3747 83° East 511 588 35,000  Level Cleveland Center
Mon 04:53:28 PM 42.3969 -83.2008 85° East 499 574 35,000  Level Cleveland Center
Mon 04:54:28 PM 42.4117 -83.0131 84° East 499 574 35,000  Level Cleveland Center
Mon 04:55:28 PM 42.4258 -82.8306 84° East 493 567 35,000  Level Cleveland Center
Mon 04:57:28 PM 42.4533 -82.4575 84° East 498 573 35,000  Level Cleveland Center
Mon 04:58:28 PM 42.4644 -82.2747 85° East 498 573 35,000  Level Cleveland Center
Mon 04:59:28 PM 42.4794 -82.0864 84° East 498 573 35,000  Level Cleveland Center
Mon 05:00:28 PM 42.4903 -81.9008 85° East 498 573 35,000  Level Cleveland Center
Mon 05:01:28 PM 42.5047 -81.7125 84° East 493 567 35,000  Level Cleveland Center
Mon 05:02:28 PM 42.5189 -81.5072 85° East 498 573 35,000  Level Cleveland Center
Mon 05:03:28 PM 42.5308 -81.3214 85° East 499 574 35,000  Level Cleveland Center
Mon 05:04:28 PM 42.5422 -81.1300 85° East 499 574 35,000  Level Cleveland Center
Mon 05:05:28 PM 42.5533 -80.9328 86° East 504 580 35,000  Level Cleveland Center
Mon 05:06:28 PM 42.5664 -80.7411 85° East 504 580 35,000  Level Cleveland Center
Mon 05:07:28 PM 42.5747 -80.5464 87° East 512 589 35,000  Level Cleveland Center
Mon 05:08:28 PM 42.5850 -80.3547 86° East 518 596 35,000  Level Cleveland Center
Mon 05:09:28 PM 42.5950 -80.1800 85° East 518 596 35,000  Level Cleveland Center
Mon 05:10:28 PM 42.6064 -79.9625 86° East 519 597 35,000  Level Cleveland Center
Mon 05:11:28 PM 42.6178 -79.7650 85° East 519 597 35,000  Level Cleveland Center
Mon 05:12:28 PM 42.6289 -79.5700 86° East 519 597 35,000  Level Cleveland Center
Mon 05:13:28 PM 42.6372 -79.3725 87° East 519 597 35,000  Level Cleveland Center
Mon 05:14:28 PM 42.6456 -79.1719 87° East 519 597 35,000  Level Cleveland Center
Mon 05:15:28 PM 42.6533 -78.9769 87° East 519 597 35,000  Level Cleveland Center
Mon 05:16:28 PM 42.6586 -78.7792 88° East 519 597 35,000  Level Cleveland Center
Mon 05:17:28 PM 42.6681 -78.5839 86° East 519 597 35,000  Level Cleveland Center
Mon 05:18:28 PM 42.6747 -78.3861 87° East 519 597 35,000  Level Cleveland Center
Mon 05:19:28 PM 42.6814 -78.1908 87° East 519 597 35,000  Level Cleveland Center
Mon 05:20:28 PM 42.6878 -77.9986 87° East 514 592 35,000  Level Cleveland Center
Mon 05:21:28 PM 42.6956 -77.8033 87° East 514 592 35,000  Level Cleveland Center
Mon 05:22:28 PM 42.7011 -77.6053 88° East 520 598 35,000  Level Cleveland Center
Mon 05:23:28 PM 42.7044 -77.4186 89° East 536 617 35,000  Level Cleveland Center
Mon 05:24:56 PM 42.7128 -77.1119 88° East 544 626 35,000  Level Boston Center
Mon 05:25:56 PM 42.7167 -76.9142 88° East 532 612 35,000  Level Boston Center
Mon 05:26:55 PM 42.7208 -76.7561 88° East 532 612 35,000  Level Boston Center
Mon 05:27:56 PM 42.7275 -76.5192 88° East 527 606 35,000  Level Boston Center
Mon 05:28:56 PM 42.7303 -76.3186 89° East 527 606 35,000  Level Boston Center
Mon 05:29:56 PM 42.7325 -76.1264 89° East 521 600 35,000  Level Boston Center
Mon 05:30:56 PM 42.7347 -75.9258 89° East 516 594 35,000  Level Boston Center
Mon 05:31:56 PM 42.7383 -75.7281 89° East 516 594 35,000  Level Boston Center
Mon 05:32:56 PM 42.7378 -75.5300 90° East 516 594 35,000  Level Boston Center
Mon 05:33:56 PM 42.7431 -75.3325 88° East 516 594 35,000  Level Boston Center
Mon 05:34:56 PM 42.7433 -75.1514 90° East 516 594 35,000  Level Boston Center
Mon 05:35:56 PM 42.7456 -74.9592 89° East 516 594 35,000  Level Boston Center
Mon 05:36:56 PM 42.7456 -74.7586 90° East 516 594 35,000  Level Boston Center
Mon 05:37:56 PM 42.7475 -74.5633 89° East 516 594 35,000 -550 Level Boston Center
Mon 05:38:56 PM 42.7444 -74.3739 91° East 516 594 33,900 -1,700 Descending Boston Center
Mon 05:39:56 PM 42.7456 -74.1872 89° East 510 587 31,600 -2,250 Descending Boston Center
Mon 05:40:56 PM 42.7439 -74.0006 91° East 504 580 29,400 -2,200 Descending Boston Center
Mon 05:41:56 PM 42.7422 -73.8197 91° East 484 557 27,200 -2,250 Descending Boston Center
Mon 05:42:56 PM 42.7547 -73.6278 85° East 469 540 24,900 -2,250 Descending Boston Center
Mon 05:43:56 PM 42.7606 -73.4553 87° East 463 533 22,700 -2,200 Descending Boston Center
Mon 05:44:56 PM 42.7661 -73.2886 87° East 448 516 20,500 -1,850 Descending Boston Center
Mon 05:45:56 PM 42.7672 -73.1386 89° East 437 503 19,000 -750 Descending Boston Center
Mon 05:46:56 PM 42.7764 -72.9606 86° East 437 503 19,000 -227 Level Boston Center
Mon 05:48:08 PM 42.7811 -72.7908 88° East 442 509 18,500 -1,136 Descending Boston Center
Mon 05:49:08 PM 42.7881 -72.5956 87° East 437 503 16,500 -1,850 Descending Boston Center
Mon 05:50:08 PM 42.7900 -72.4486 89° East 408 470 14,800 -1,750 Descending Boston Center
Mon 05:51:08 PM 42.7942 -72.3014 88° East 393 452 13,000 -1,800 Descending Boston Center
Mon 05:52:08 PM 42.8022 -72.1742 85° East 358 412 11,200 -2,000 Descending Boston Center
Mon 05:53:08 PM 42.8250 -72.0692 73° East 321 369 9,000 -2,050 Descending Boston Center
Mon 05:54:08 PM 42.8494 -71.9503 74° East 300 345 7,100 -1,700 Descending Boston Center
Mon 05:55:08 PM 42.8908 -71.8675 56° Northeast 282 325 5,600 -1,500 Descending Boston Center
Mon 05:56:08 PM 42.9528 -71.7819 45° Northeast 282 325 4,100 -800 Descending Boston Center
Mon 05:57:08 PM 43.0025 -71.7161 44° Northeast 271 312 4,000 -489 Descending Boston Center
Mon 05:58:23 PM 43.0500 -71.6167 57° Northeast 234 269 3,000 -667 Descending KA90
Mon 05:59:23 PM 43.0667 -71.5500 71° East 214 246 2,500 -500 Descending KA90

Login

Don't have an account? Register now (free) for customized features, flight alerts, and more!